Terminal Aerodrome Forecast
Issued by NWS

Home | Current Version | Previous Version | Text Only | Print | Product List | Glossary On
Versions: 1 2 3 4 5 6 7 8 9 10 11 12 13 14 15 16 17 18 19 20 21 22 23
000
FTUS45 KLKN 300604 AAA
TAFWMC
TAF AMD
KWMC 300604Z 3006/3106 25008KT P6SM BKN110
      TEMPO 3006/3008 27014G23KT
     FM300900 23007KT P6SM SKC
     FM301800 25015G25KT P6SM SCT250
     FM310230 VRB03KT P6SM SKC=

USA.gov is the U.S. government's official web portal to all federal, state and local government web resources and services.